sensor_id;sensor_type;location;lat;lon;timestamp;P1;durP1;ratioP1;P2;durP2;ratioP2
21743;SDS011;11034;48.556;9.342;2023-07-02T00:00:32;3.65;;;3.05;;
21743;SDS011;11034;48.556;9.342;2023-07-02T00:03:00;3.30;;;3.00;;
21743;SDS011;11034;48.556;9.342;2023-07-02T00:05:29;5.10;;;3.17;;
21743;SDS011;11034;48.556;9.342;2023-07-02T00:07:57;6.28;;;3.42;;
21743;SDS011;11034;48.556;9.342;2023-07-02T00:10:25;3.83;;;3.00;;
21743;SDS011;11034;48.556;9.342;2023-07-02T00:12:53;5.43;;;3.58;;
21743;SDS011;11034;48.556;9.342;2023-07-02T00:15:21;4.32;;;3.25;;
21743;SDS011;11034;48.556;9.342;2023-07-02T00:17:51;4.05;;;3.13;;
21743;SDS011;11034;48.556;9.342;2023-07-02T00:20:19;3.90;;;3.40;;
21743;SDS011;11034;48.556;9.342;2023-07-02T00:22:48;5.05;;;3.63;;
21743;SDS011;11034;48.556;9.342;2023-07-02T00:25:16;4.78;;;3.55;;
21743;SDS011;11034;48.556;9.342;2023-07-02T00:27:44;5.82;;;3.60;;
21743;SDS011;11034;48.556;9.342;2023-07-02T00:30:12;3.90;;;3.45;;
21743;SDS011;11034;48.556;9.342;2023-07-02T00:32:41;7.18;;;2.83;;
21743;SDS011;11034;48.556;9.342;2023-07-02T00:35:10;4.80;;;3.35;;
21743;SDS011;11034;48.556;9.342;2023-07-02T00:37:38;4.30;;;3.42;;
21743;SDS011;11034;48.556;9.342;2023-07-02T00:40:06;6.47;;;3.40;;
21743;SDS011;11034;48.556;9.342;2023-07-02T00:42:35;4.05;;;3.10;;
21743;SDS011;11034;48.556;9.342;2023-07-02T00:45:04;4.50;;;3.55;;
21743;SDS011;11034;48.556;9.342;2023-07-02T00:47:33;3.30;;;2.97;;
21743;SDS011;11034;48.556;9.342;2023-07-02T00:50:02;4.80;;;3.22;;
21743;SDS011;11034;48.556;9.342;2023-07-02T00:52:33;4.65;;;3.42;;
21743;SDS011;11034;48.556;9.342;2023-07-02T00:55:01;5.88;;;3.33;;
21743;SDS011;11034;48.556;9.342;2023-07-02T00:57:29;4.20;;;3.15;;
21743;SDS011;11034;48.556;9.342;2023-07-02T00:59:58;3.78;;;3.33;;
21743;SDS011;11034;48.556;9.342;2023-07-02T01:02:27;5.25;;;3.30;;
21743;SDS011;11034;48.556;9.342;2023-07-02T01:04:56;7.65;;;3.78;;
21743;SDS011;11034;48.556;9.342;2023-07-02T01:07:27;5.15;;;2.97;;
21743;SDS011;11034;48.556;9.342;2023-07-02T01:09:56;5.53;;;3.60;;
21743;SDS011;11034;48.556;9.342;2023-07-02T01:12:24;4.72;;;3.05;;
21743;SDS011;11034;48.556;9.342;2023-07-02T01:14:53;4.43;;;3.20;;
21743;SDS011;11034;48.556;9.342;2023-07-02T01:17:26;3.45;;;3.05;;
21743;SDS011;11034;48.556;9.342;2023-07-02T01:19:56;4.07;;;3.00;;
21743;SDS011;11034;48.556;9.342;2023-07-02T01:22:26;3.97;;;3.15;;
21743;SDS011;11034;48.556;9.342;2023-07-02T01:24:55;4.00;;;3.10;;
21743;SDS011;11034;48.556;9.342;2023-07-02T01:27:24;4.70;;;3.53;;
21743;SDS011;11034;48.556;9.342;2023-07-02T01:29:55;4.75;;;3.45;;
21743;SDS011;11034;48.556;9.342;2023-07-02T01:32:24;5.90;;;3.20;;
21743;SDS011;11034;48.556;9.342;2023-07-02T01:34:53;3.95;;;3.17;;
21743;SDS011;11034;48.556;9.342;2023-07-02T01:37:22;5.60;;;3.35;;
21743;SDS011;11034;48.556;9.342;2023-07-02T01:39:50;4.15;;;3.33;;
21743;SDS011;11034;48.556;9.342;2023-07-02T01:42:18;4.13;;;3.42;;
21743;SDS011;11034;48.556;9.342;2023-07-02T01:44:47;5.38;;;2.90;;
21743;SDS011;11034;48.556;9.342;2023-07-02T01:47:17;7.45;;;3.50;;
21743;SDS011;11034;48.556;9.342;2023-07-02T01:49:46;5.22;;;3.08;;
21743;SDS011;11034;48.556;9.342;2023-07-02T01:52:14;5.80;;;3.42;;
21743;SDS011;11034;48.556;9.342;2023-07-02T01:54:45;7.13;;;3.30;;
21743;SDS011;11034;48.556;9.342;2023-07-02T01:57:13;5.43;;;3.42;;
21743;SDS011;11034;48.556;9.342;2023-07-02T01:59:41;4.15;;;3.17;;
21743;SDS011;11034;48.556;9.342;2023-07-02T02:02:09;5.05;;;3.45;;
21743;SDS011;11034;48.556;9.342;2023-07-02T02:04:37;5.78;;;3.30;;
21743;SDS011;11034;48.556;9.342;2023-07-02T02:07:05;4.07;;;3.45;;
21743;SDS011;11034;48.556;9.342;2023-07-02T02:09:33;4.45;;;3.25;;
21743;SDS011;11034;48.556;9.342;2023-07-02T02:12:03;3.85;;;3.22;;
21743;SDS011;11034;48.556;9.342;2023-07-02T02:14:31;4.90;;;3.78;;
21743;SDS011;11034;48.556;9.342;2023-07-02T02:16:59;5.30;;;3.13;;
21743;SDS011;11034;48.556;9.342;2023-07-02T02:19:28;3.90;;;3.30;;
21743;SDS011;11034;48.556;9.342;2023-07-02T02:21:55;5.35;;;3.55;;
21743;SDS011;11034;48.556;9.342;2023-07-02T02:24:23;3.85;;;3.35;;
21743;SDS011;11034;48.556;9.342;2023-07-02T02:26:51;5.28;;;3.42;;
21743;SDS011;11034;48.556;9.342;2023-07-02T02:29:21;6.47;;;3.15;;
21743;SDS011;11034;48.556;9.342;2023-07-02T02:31:49;5.30;;;3.53;;
21743;SDS011;11034;48.556;9.342;2023-07-02T02:34:17;7.43;;;3.33;;
21743;SDS011;11034;48.556;9.342;2023-07-02T02:36:45;6.38;;;3.75;;
21743;SDS011;11034;48.556;9.342;2023-07-02T02:39:13;4.25;;;3.65;;
21743;SDS011;11034;48.556;9.342;2023-07-02T02:41:41;7.85;;;3.40;;
21743;SDS011;11034;48.556;9.342;2023-07-02T02:44:09;3.85;;;3.15;;
21743;SDS011;11034;48.556;9.342;2023-07-02T02:46:39;6.10;;;3.13;;
21743;SDS011;11034;48.556;9.342;2023-07-02T02:49:07;3.67;;;2.97;;
21743;SDS011;11034;48.556;9.342;2023-07-02T02:51:35;3.90;;;2.95;;
21743;SDS011;11034;48.556;9.342;2023-07-02T02:54:03;4.43;;;3.03;;
21743;SDS011;11034;48.556;9.342;2023-07-02T02:56:31;5.18;;;3.20;;
21743;SDS011;11034;48.556;9.342;2023-07-02T02:58:59;3.72;;;2.90;;
21743;SDS011;11034;48.556;9.342;2023-07-02T03:01:27;3.72;;;3.10;;
21743;SDS011;11034;48.556;9.342;2023-07-02T03:03:59;5.93;;;3.25;;
21743;SDS011;11034;48.556;9.342;2023-07-02T03:06:27;5.68;;;3.10;;
21743;SDS011;11034;48.556;9.342;2023-07-02T03:08:55;4.07;;;3.20;;
21743;SDS011;11034;48.556;9.342;2023-07-02T03:11:23;5.20;;;3.25;;
21743;SDS011;11034;48.556;9.342;2023-07-02T03:13:51;4.75;;;2.90;;
21743;SDS011;11034;48.556;9.342;2023-07-02T03:16:19;6.65;;;3.47;;
21743;SDS011;11034;48.556;9.342;2023-07-02T03:18:48;6.72;;;2.97;;
21743;SDS011;11034;48.556;9.342;2023-07-02T03:21:17;4.15;;;3.13;;
21743;SDS011;11034;48.556;9.342;2023-07-02T03:23:45;6.68;;;3.85;;
21743;SDS011;11034;48.556;9.342;2023-07-02T03:26:13;6.28;;;3.33;;
21743;SDS011;11034;48.556;9.342;2023-07-02T03:28:42;7.07;;;3.65;;
21743;SDS011;11034;48.556;9.342;2023-07-02T03:31:10;6.40;;;3.65;;
21743;SDS011;11034;48.556;9.342;2023-07-02T03:33:38;6.93;;;3.92;;
21743;SDS011;11034;48.556;9.342;2023-07-02T03:36:06;4.72;;;3.90;;
21743;SDS011;11034;48.556;9.342;2023-07-02T03:38:35;6.30;;;3.90;;
21743;SDS011;11034;48.556;9.342;2023-07-02T03:41:03;5.72;;;4.20;;
21743;SDS011;11034;48.556;9.342;2023-07-02T03:43:31;6.05;;;4.57;;
21743;SDS011;11034;48.556;9.342;2023-07-02T03:45:59;5.10;;;4.07;;
21743;SDS011;11034;48.556;9.342;2023-07-02T03:48:27;5.90;;;5.30;;
21743;SDS011;11034;48.556;9.342;2023-07-02T03:50:55;9.93;;;5.60;;
21743;SDS011;11034;48.556;9.342;2023-07-02T03:53:23;7.38;;;5.38;;
21743;SDS011;11034;48.556;9.342;2023-07-02T03:55:52;7.10;;;5.97;;
21743;SDS011;11034;48.556;9.342;2023-07-02T03:58:20;10.18;;;6.93;;
21743;SDS011;11034;48.556;9.342;2023-07-02T04:00:48;9.15;;;6.40;;
21743;SDS011;11034;48.556;9.342;2023-07-02T04:03:17;7.65;;;6.47;;
21743;SDS011;11034;48.556;9.342;2023-07-02T04:05:45;6.80;;;6.07;;
21743;SDS011;11034;48.556;9.342;2023-07-02T04:08:13;9.60;;;7.05;;
21743;SDS011;11034;48.556;9.342;2023-07-02T04:10:42;9.13;;;6.95;;
21743;SDS011;11034;48.556;9.342;2023-07-02T04:13:11;8.07;;;6.88;;
21743;SDS011;11034;48.556;9.342;2023-07-02T04:15:39;7.55;;;6.85;;
21743;SDS011;11034;48.556;9.342;2023-07-02T04:18:07;9.02;;;7.50;;
21743;SDS011;11034;48.556;9.342;2023-07-02T04:20:35;11.65;;;7.95;;
21743;SDS011;11034;48.556;9.342;2023-07-02T04:23:04;9.77;;;7.90;;
21743;SDS011;11034;48.556;9.342;2023-07-02T04:25:33;11.05;;;7.68;;
21743;SDS011;11034;48.556;9.342;2023-07-02T04:28:22;7.82;;;7.03;;
21743;SDS011;11034;48.556;9.342;2023-07-02T04:30:50;8.77;;;7.32;;
21743;SDS011;11034;48.556;9.342;2023-07-02T04:33:19;10.07;;;6.78;;
21743;SDS011;11034;48.556;9.342;2023-07-02T04:35:47;7.38;;;6.55;;
21743;SDS011;11034;48.556;9.342;2023-07-02T04:38:16;8.70;;;6.60;;
21743;SDS011;11034;48.556;9.342;2023-07-02T04:40:44;7.80;;;6.07;;
21743;SDS011;11034;48.556;9.342;2023-07-02T04:43:12;9.63;;;6.28;;
21743;SDS011;11034;48.556;9.342;2023-07-02T04:45:46;8.43;;;6.20;;
21743;SDS011;11034;48.556;9.342;2023-07-02T04:48:15;7.63;;;5.50;;
21743;SDS011;11034;48.556;9.342;2023-07-02T04:50:43;7.45;;;5.40;;
21743;SDS011;11034;48.556;9.342;2023-07-02T04:53:11;8.18;;;5.35;;
21743;SDS011;11034;48.556;9.342;2023-07-02T04:55:39;7.03;;;4.90;;
21743;SDS011;11034;48.556;9.342;2023-07-02T04:58:07;6.82;;;5.03;;
21743;SDS011;11034;48.556;9.342;2023-07-02T05:00:35;6.03;;;5.10;;
21743;SDS011;11034;48.556;9.342;2023-07-02T05:03:05;6.70;;;5.45;;
21743;SDS011;11034;48.556;9.342;2023-07-02T05:05:33;5.47;;;4.97;;
21743;SDS011;11034;48.556;9.342;2023-07-02T05:08:01;3.95;;;3.50;;
21743;SDS011;11034;48.556;9.342;2023-07-02T05:10:31;6.07;;;4.00;;
21743;SDS011;11034;48.556;9.342;2023-07-02T05:12:59;7.03;;;4.20;;
21743;SDS011;11034;48.556;9.342;2023-07-02T05:15:27;6.43;;;4.78;;
21743;SDS011;11034;48.556;9.342;2023-07-02T05:17:55;6.28;;;4.65;;
21743;SDS011;11034;48.556;9.342;2023-07-02T05:20:25;7.43;;;4.88;;
21743;SDS011;11034;48.556;9.342;2023-07-02T05:22:53;6.30;;;5.07;;
21743;SDS011;11034;48.556;9.342;2023-07-02T05:25:21;6.20;;;5.10;;
21743;SDS011;11034;48.556;9.342;2023-07-02T05:27:49;5.78;;;4.47;;
21743;SDS011;11034;48.556;9.342;2023-07-02T05:30:17;8.02;;;4.90;;
21743;SDS011;11034;48.556;9.342;2023-07-02T05:32:45;8.45;;;5.03;;
21743;SDS011;11034;48.556;9.342;2023-07-02T05:35:13;8.45;;;4.88;;
21743;SDS011;11034;48.556;9.342;2023-07-02T05:37:44;6.38;;;4.80;;
21743;SDS011;11034;48.556;9.342;2023-07-02T05:40:13;8.13;;;4.30;;
21743;SDS011;11034;48.556;9.342;2023-07-02T05:42:43;7.03;;;4.10;;
21743;SDS011;11034;48.556;9.342;2023-07-02T05:45:11;8.27;;;4.50;;
21743;SDS011;11034;48.556;9.342;2023-07-02T05:47:39;7.30;;;4.22;;
21743;SDS011;11034;48.556;9.342;2023-07-02T05:50:07;6.95;;;4.20;;
21743;SDS011;11034;48.556;9.342;2023-07-02T05:52:36;6.32;;;3.58;;
21743;SDS011;11034;48.556;9.342;2023-07-02T05:55:07;6.85;;;4.07;;
21743;SDS011;11034;48.556;9.342;2023-07-02T05:57:36;6.60;;;3.40;;
21743;SDS011;11034;48.556;9.342;2023-07-02T06:00:05;9.85;;;3.50;;
21743;SDS011;11034;48.556;9.342;2023-07-02T06:02:34;4.90;;;3.38;;
21743;SDS011;11034;48.556;9.342;2023-07-02T06:05:02;5.70;;;3.40;;
21743;SDS011;11034;48.556;9.342;2023-07-02T06:07:31;5.53;;;3.42;;
21743;SDS011;11034;48.556;9.342;2023-07-02T06:09:59;5.43;;;2.90;;
21743;SDS011;11034;48.556;9.342;2023-07-02T06:12:28;5.20;;;3.22;;
21743;SDS011;11034;48.556;9.342;2023-07-02T06:14:56;6.38;;;3.20;;
21743;SDS011;11034;48.556;9.342;2023-07-02T06:17:24;7.28;;;2.90;;
21743;SDS011;11034;48.556;9.342;2023-07-02T06:19:52;4.90;;;3.03;;
21743;SDS011;11034;48.556;9.342;2023-07-02T06:22:20;5.50;;;2.80;;
21743;SDS011;11034;48.556;9.342;2023-07-02T06:24:48;4.38;;;3.15;;
21743;SDS011;11034;48.556;9.342;2023-07-02T06:27:16;5.82;;;2.95;;
21743;SDS011;11034;48.556;9.342;2023-07-02T06:29:46;4.97;;;3.33;;
21743;SDS011;11034;48.556;9.342;2023-07-02T06:32:14;5.47;;;3.22;;
21743;SDS011;11034;48.556;9.342;2023-07-02T06:34:42;4.93;;;3.10;;
21743;SDS011;11034;48.556;9.342;2023-07-02T06:37:10;5.03;;;2.70;;
21743;SDS011;11034;48.556;9.342;2023-07-02T06:39:38;5.13;;;3.05;;
21743;SDS011;11034;48.556;9.342;2023-07-02T06:42:06;5.20;;;3.30;;
21743;SDS011;11034;48.556;9.342;2023-07-02T06:44:34;5.60;;;2.92;;
21743;SDS011;11034;48.556;9.342;2023-07-02T06:47:04;5.47;;;3.33;;
21743;SDS011;11034;48.556;9.342;2023-07-02T06:49:32;5.13;;;3.42;;
21743;SDS011;11034;48.556;9.342;2023-07-02T06:52:00;4.38;;;3.03;;
21743;SDS011;11034;48.556;9.342;2023-07-02T06:54:28;8.52;;;3.40;;
21743;SDS011;11034;48.556;9.342;2023-07-02T06:56:56;6.85;;;3.53;;
21743;SDS011;11034;48.556;9.342;2023-07-02T06:59:24;7.75;;;3.05;;
21743;SDS011;11034;48.556;9.342;2023-07-02T07:01:52;7.32;;;3.42;;
21743;SDS011;11034;48.556;9.342;2023-07-02T07:04:22;7.88;;;3.13;;
21743;SDS011;11034;48.556;9.342;2023-07-02T07:06:50;10.60;;;3.53;;
21743;SDS011;11034;48.556;9.342;2023-07-02T07:09:18;7.07;;;4.03;;
21743;SDS011;11034;48.556;9.342;2023-07-02T07:11:46;7.68;;;4.15;;
21743;SDS011;11034;48.556;9.342;2023-07-02T07:14:14;7.10;;;3.60;;
21743;SDS011;11034;48.556;9.342;2023-07-02T07:16:43;9.10;;;4.75;;
21743;SDS011;11034;48.556;9.342;2023-07-02T07:19:11;5.88;;;4.07;;
21743;SDS011;11034;48.556;9.342;2023-07-02T07:21:40;6.70;;;3.95;;
21743;SDS011;11034;48.556;9.342;2023-07-02T07:24:09;7.90;;;4.55;;
21743;SDS011;11034;48.556;9.342;2023-07-02T07:26:37;6.07;;;4.43;;
21743;SDS011;11034;48.556;9.342;2023-07-02T07:29:06;12.13;;;5.28;;
21743;SDS011;11034;48.556;9.342;2023-07-02T07:31:34;11.40;;;5.45;;
21743;SDS011;11034;48.556;9.342;2023-07-02T07:34:02;9.00;;;5.03;;
21743;SDS011;11034;48.556;9.342;2023-07-02T07:36:30;9.70;;;5.47;;
21743;SDS011;11034;48.556;9.342;2023-07-02T07:39:00;10.27;;;5.50;;
21743;SDS011;11034;48.556;9.342;2023-07-02T07:41:28;10.27;;;6.00;;
21743;SDS011;11034;48.556;9.342;2023-07-02T07:43:56;10.40;;;6.00;;
21743;SDS011;11034;48.556;9.342;2023-07-02T07:46:24;9.90;;;6.25;;
21743;SDS011;11034;48.556;9.342;2023-07-02T07:48:52;13.35;;;7.50;;
21743;SDS011;11034;48.556;9.342;2023-07-02T07:51:20;11.80;;;6.63;;
21743;SDS011;11034;48.556;9.342;2023-07-02T07:53:48;12.73;;;7.70;;
21743;SDS011;11034;48.556;9.342;2023-07-02T07:56:18;14.68;;;7.75;;
21743;SDS011;11034;48.556;9.342;2023-07-02T07:58:46;13.82;;;7.22;;
21743;SDS011;11034;48.556;9.342;2023-07-02T08:01:14;15.05;;;7.57;;
21743;SDS011;11034;48.556;9.342;2023-07-02T08:03:42;13.10;;;7.90;;
21743;SDS011;11034;48.556;9.342;2023-07-02T08:06:10;15.60;;;8.60;;
21743;SDS011;11034;48.556;9.342;2023-07-02T08:08:38;16.35;;;8.73;;
21743;SDS011;11034;48.556;9.342;2023-07-02T08:11:06;16.95;;;9.38;;
21743;SDS011;11034;48.556;9.342;2023-07-02T08:13:36;14.35;;;9.15;;
21743;SDS011;11034;48.556;9.342;2023-07-02T08:16:04;16.52;;;8.70;;
21743;SDS011;11034;48.556;9.342;2023-07-02T08:18:33;18.45;;;9.52;;
21743;SDS011;11034;48.556;9.342;2023-07-02T08:21:01;16.08;;;8.82;;
21743;SDS011;11034;48.556;9.342;2023-07-02T08:23:32;15.23;;;9.57;;
21743;SDS011;11034;48.556;9.342;2023-07-02T08:26:00;21.27;;;9.80;;
21743;SDS011;11034;48.556;9.342;2023-07-02T08:28:29;15.27;;;9.55;;
21743;SDS011;11034;48.556;9.342;2023-07-02T08:30:58;18.92;;;9.27;;
21743;SDS011;11034;48.556;9.342;2023-07-02T08:33:26;14.32;;;9.35;;
21743;SDS011;11034;48.556;9.342;2023-07-02T08:35:54;19.92;;;9.85;;
21743;SDS011;11034;48.556;9.342;2023-07-02T08:38:23;19.10;;;9.70;;
21743;SDS011;11034;48.556;9.342;2023-07-02T08:40:51;18.10;;;9.80;;
21743;SDS011;11034;48.556;9.342;2023-07-02T08:43:20;15.43;;;10.15;;
21743;SDS011;11034;48.556;9.342;2023-07-02T08:45:50;16.38;;;9.57;;
21743;SDS011;11034;48.556;9.342;2023-07-02T08:48:21;20.33;;;9.52;;
21743;SDS011;11034;48.556;9.342;2023-07-02T08:50:50;16.02;;;10.00;;
21743;SDS011;11034;48.556;9.342;2023-07-02T08:53:20;17.52;;;10.20;;
21743;SDS011;11034;48.556;9.342;2023-07-02T08:55:51;17.08;;;9.98;;
21743;SDS011;11034;48.556;9.342;2023-07-02T08:58:19;17.80;;;9.90;;
21743;SDS011;11034;48.556;9.342;2023-07-02T09:01:06;17.00;;;10.40;;
21743;SDS011;11034;48.556;9.342;2023-07-02T09:03:37;16.55;;;9.55;;
21743;SDS011;11034;48.556;9.342;2023-07-02T09:06:05;18.40;;;10.15;;
21743;SDS011;11034;48.556;9.342;2023-07-02T09:08:34;21.90;;;9.95;;
21743;SDS011;11034;48.556;9.342;2023-07-02T09:11:09;18.27;;;10.27;;
21743;SDS011;11034;48.556;9.342;2023-07-02T09:13:42;17.92;;;9.88;;
21743;SDS011;11034;48.556;9.342;2023-07-02T09:19:01;18.30;;;9.90;;
21743;SDS011;11034;48.556;9.342;2023-07-02T09:21:41;16.80;;;9.80;;
21743;SDS011;11034;48.556;9.342;2023-07-02T09:24:11;16.13;;;9.50;;
21743;SDS011;11034;48.556;9.342;2023-07-02T09:26:44;18.92;;;10.73;;
21743;SDS011;11034;48.556;9.342;2023-07-02T09:29:13;16.98;;;9.73;;
21743;SDS011;11034;48.556;9.342;2023-07-02T09:31:44;16.35;;;9.82;;
21743;SDS011;11034;48.556;9.342;2023-07-02T09:34:35;17.40;;;10.27;;
21743;SDS011;11034;48.556;9.342;2023-07-02T09:37:05;15.57;;;9.77;;
21743;SDS011;11034;48.556;9.342;2023-07-02T09:39:33;18.83;;;10.40;;
21743;SDS011;11034;48.556;9.342;2023-07-02T09:42:05;16.33;;;9.27;;
21743;SDS011;11034;48.556;9.342;2023-07-02T09:44:34;17.00;;;10.18;;
21743;SDS011;11034;48.556;9.342;2023-07-02T09:47:03;17.33;;;10.30;;
21743;SDS011;11034;48.556;9.342;2023-07-02T09:49:35;16.65;;;9.70;;
21743;SDS011;11034;48.556;9.342;2023-07-02T09:52:05;16.15;;;9.55;;
21743;SDS011;11034;48.556;9.342;2023-07-02T09:54:35;19.17;;;9.60;;
21743;SDS011;11034;48.556;9.342;2023-07-02T09:57:04;16.40;;;9.93;;
21743;SDS011;11034;48.556;9.342;2023-07-02T09:59:33;21.38;;;10.57;;
21743;SDS011;11034;48.556;9.342;2023-07-02T10:02:02;14.93;;;9.55;;
21743;SDS011;11034;48.556;9.342;2023-07-02T10:04:40;16.15;;;10.10;;
21743;SDS011;11034;48.556;9.342;2023-07-02T10:07:09;17.63;;;10.02;;
21743;SDS011;11034;48.556;9.342;2023-07-02T10:09:38;15.85;;;10.07;;
21743;SDS011;11034;48.556;9.342;2023-07-02T10:12:17;20.27;;;11.27;;
21743;SDS011;11034;48.556;9.342;2023-07-02T10:14:45;17.85;;;10.50;;
21743;SDS011;11034;48.556;9.342;2023-07-02T10:17:24;17.95;;;11.18;;
21743;SDS011;11034;48.556;9.342;2023-07-02T10:19:55;16.77;;;10.40;;
21743;SDS011;11034;48.556;9.342;2023-07-02T10:22:25;19.45;;;11.65;;
21743;SDS011;11034;48.556;9.342;2023-07-02T10:24:54;21.40;;;12.75;;
21743;SDS011;11034;48.556;9.342;2023-07-02T10:27:32;19.85;;;12.43;;
21743;SDS011;11034;48.556;9.342;2023-07-02T10:30:02;20.92;;;13.38;;
21743;SDS011;11034;48.556;9.342;2023-07-02T10:32:31;23.73;;;14.10;;
21743;SDS011;11034;48.556;9.342;2023-07-02T10:35:02;21.17;;;13.68;;
21743;SDS011;11034;48.556;9.342;2023-07-02T10:37:42;23.00;;;13.02;;
21743;SDS011;11034;48.556;9.342;2023-07-02T10:40:11;31.35;;;15.23;;
21743;SDS011;11034;48.556;9.342;2023-07-02T10:42:46;21.33;;;13.43;;
21743;SDS011;11034;48.556;9.342;2023-07-02T10:45:15;23.02;;;14.30;;
21743;SDS011;11034;48.556;9.342;2023-07-02T10:47:44;27.33;;;14.30;;
21743;SDS011;11034;48.556;9.342;2023-07-02T10:50:17;23.50;;;15.38;;
21743;SDS011;11034;48.556;9.342;2023-07-02T10:52:46;26.05;;;14.68;;
21743;SDS011;11034;48.556;9.342;2023-07-02T10:55:17;24.50;;;14.50;;
21743;SDS011;11034;48.556;9.342;2023-07-02T10:57:46;23.85;;;13.93;;
21743;SDS011;11034;48.556;9.342;2023-07-02T11:00:15;21.45;;;14.15;;
21743;SDS011;11034;48.556;9.342;2023-07-02T11:02:43;22.45;;;14.13;;
21743;SDS011;11034;48.556;9.342;2023-07-02T11:05:11;23.88;;;14.38;;
21743;SDS011;11034;48.556;9.342;2023-07-02T11:07:42;24.08;;;15.40;;
21743;SDS011;11034;48.556;9.342;2023-07-02T11:10:16;25.35;;;15.05;;
21743;SDS011;11034;48.556;9.342;2023-07-02T11:12:45;27.55;;;14.68;;
21743;SDS011;11034;48.556;9.342;2023-07-02T11:15:14;25.45;;;14.60;;
21743;SDS011;11034;48.556;9.342;2023-07-02T11:17:43;27.65;;;15.88;;
21743;SDS011;11034;48.556;9.342;2023-07-02T11:20:12;29.70;;;15.45;;
21743;SDS011;11034;48.556;9.342;2023-07-02T11:22:43;25.08;;;15.75;;
21743;SDS011;11034;48.556;9.342;2023-07-02T11:25:12;30.92;;;16.42;;
21743;SDS011;11034;48.556;9.342;2023-07-02T11:27:42;28.52;;;16.63;;
21743;SDS011;11034;48.556;9.342;2023-07-02T11:30:11;25.90;;;16.23;;
21743;SDS011;11034;48.556;9.342;2023-07-02T11:32:46;28.33;;;16.63;;
21743;SDS011;11034;48.556;9.342;2023-07-02T11:35:16;26.17;;;16.85;;
21743;SDS011;11034;48.556;9.342;2023-07-02T11:37:46;28.08;;;17.02;;
21743;SDS011;11034;48.556;9.342;2023-07-02T11:40:17;27.73;;;18.05;;
21743;SDS011;11034;48.556;9.342;2023-07-02T11:42:45;27.02;;;17.20;;
21743;SDS011;11034;48.556;9.342;2023-07-02T11:45:13;29.90;;;18.27;;
21743;SDS011;11034;48.556;9.342;2023-07-02T11:47:41;31.13;;;17.52;;
21743;SDS011;11034;48.556;9.342;2023-07-02T11:50:09;24.42;;;16.65;;
21743;SDS011;11034;48.556;9.342;2023-07-02T11:52:53;24.58;;;16.25;;
21743;SDS011;11034;48.556;9.342;2023-07-02T11:55:21;26.45;;;16.45;;
21743;SDS011;11034;48.556;9.342;2023-07-02T11:57:49;29.23;;;17.73;;
21743;SDS011;11034;48.556;9.342;2023-07-02T12:00:17;29.48;;;17.60;;
21743;SDS011;11034;48.556;9.342;2023-07-02T12:02:46;27.33;;;17.48;;
21743;SDS011;11034;48.556;9.342;2023-07-02T12:05:14;28.13;;;17.23;;
21743;SDS011;11034;48.556;9.342;2023-07-02T12:07:42;26.90;;;16.88;;
21743;SDS011;11034;48.556;9.342;2023-07-02T12:10:11;25.08;;;16.08;;
21743;SDS011;11034;48.556;9.342;2023-07-02T12:12:39;25.27;;;15.85;;
21743;SDS011;11034;48.556;9.342;2023-07-02T12:15:08;26.05;;;16.00;;
21743;SDS011;11034;48.556;9.342;2023-07-02T12:17:36;22.13;;;14.80;;
21743;SDS011;11034;48.556;9.342;2023-07-02T12:20:05;26.75;;;16.50;;
21743;SDS011;11034;48.556;9.342;2023-07-02T12:22:33;27.13;;;16.10;;
21743;SDS011;11034;48.556;9.342;2023-07-02T12:25:02;25.60;;;15.65;;
21743;SDS011;11034;48.556;9.342;2023-07-02T12:27:32;25.58;;;15.52;;
21743;SDS011;11034;48.556;9.342;2023-07-02T12:30:00;24.73;;;14.70;;
21743;SDS011;11034;48.556;9.342;2023-07-02T12:32:29;23.08;;;15.40;;
21743;SDS011;11034;48.556;9.342;2023-07-02T12:34:57;24.00;;;14.93;;
21743;SDS011;11034;48.556;9.342;2023-07-02T12:37:25;24.60;;;15.55;;
21743;SDS011;11034;48.556;9.342;2023-07-02T12:39:53;23.10;;;14.68;;
21743;SDS011;11034;48.556;9.342;2023-07-02T12:42:21;25.80;;;15.32;;
21743;SDS011;11034;48.556;9.342;2023-07-02T12:44:51;22.40;;;14.60;;
21743;SDS011;11034;48.556;9.342;2023-07-02T12:47:19;19.38;;;13.13;;
21743;SDS011;11034;48.556;9.342;2023-07-02T12:49:47;22.30;;;13.82;;
21743;SDS011;11034;48.556;9.342;2023-07-02T12:52:15;20.65;;;13.75;;
21743;SDS011;11034;48.556;9.342;2023-07-02T12:54:43;20.60;;;13.00;;
21743;SDS011;11034;48.556;9.342;2023-07-02T12:57:11;21.67;;;13.82;;
21743;SDS011;11034;48.556;9.342;2023-07-02T12:59:39;23.58;;;14.90;;
21743;SDS011;11034;48.556;9.342;2023-07-02T13:02:09;21.13;;;12.85;;
21743;SDS011;11034;48.556;9.342;2023-07-02T13:04:38;21.17;;;13.52;;
21743;SDS011;11034;48.556;9.342;2023-07-02T13:07:06;21.52;;;14.43;;
21743;SDS011;11034;48.556;9.342;2023-07-02T13:09:34;21.67;;;14.02;;
21743;SDS011;11034;48.556;9.342;2023-07-02T13:12:02;22.70;;;14.00;;
21743;SDS011;11034;48.556;9.342;2023-07-02T13:14:31;21.92;;;13.90;;
21743;SDS011;11034;48.556;9.342;2023-07-02T13:16:59;20.15;;;13.85;;
21743;SDS011;11034;48.556;9.342;2023-07-02T13:19:30;22.10;;;14.50;;
21743;SDS011;11034;48.556;9.342;2023-07-02T13:21:59;22.13;;;14.27;;
21743;SDS011;11034;48.556;9.342;2023-07-02T13:24:28;22.95;;;15.10;;
21743;SDS011;11034;48.556;9.342;2023-07-02T13:27:02;22.00;;;14.00;;
21743;SDS011;11034;48.556;9.342;2023-07-02T13:29:32;21.10;;;14.05;;
21743;SDS011;11034;48.556;9.342;2023-07-02T13:32:00;21.88;;;13.45;;
21743;SDS011;11034;48.556;9.342;2023-07-02T13:34:30;21.60;;;13.95;;
21743;SDS011;11034;48.556;9.342;2023-07-02T13:36:59;22.75;;;13.70;;
21743;SDS011;11034;48.556;9.342;2023-07-02T13:39:29;22.10;;;13.80;;
21743;SDS011;11034;48.556;9.342;2023-07-02T13:41:57;22.20;;;14.40;;
21743;SDS011;11034;48.556;9.342;2023-07-02T13:44:25;26.40;;;15.00;;
21743;SDS011;11034;48.556;9.342;2023-07-02T13:46:53;23.27;;;14.52;;
21743;SDS011;11034;48.556;9.342;2023-07-02T13:49:21;20.73;;;13.98;;
21743;SDS011;11034;48.556;9.342;2023-07-02T13:51:51;26.08;;;13.88;;
21743;SDS011;11034;48.556;9.342;2023-07-02T13:54:19;24.05;;;14.73;;
21743;SDS011;11034;48.556;9.342;2023-07-02T13:56:47;21.23;;;14.20;;
21743;SDS011;11034;48.556;9.342;2023-07-02T13:59:17;22.08;;;13.65;;
21743;SDS011;11034;48.556;9.342;2023-07-02T14:01:46;28.13;;;15.00;;
21743;SDS011;11034;48.556;9.342;2023-07-02T14:04:16;23.60;;;15.48;;
21743;SDS011;11034;48.556;9.342;2023-07-02T14:06:45;23.52;;;14.95;;
21743;SDS011;11034;48.556;9.342;2023-07-02T14:09:13;21.50;;;14.93;;
21743;SDS011;11034;48.556;9.342;2023-07-02T14:11:42;21.92;;;14.77;;
21743;SDS011;11034;48.556;9.342;2023-07-02T14:14:10;24.20;;;15.20;;
21743;SDS011;11034;48.556;9.342;2023-07-02T14:16:40;23.88;;;15.57;;
21743;SDS011;11034;48.556;9.342;2023-07-02T14:19:09;21.92;;;15.23;;
21743;SDS011;11034;48.556;9.342;2023-07-02T14:21:38;22.85;;;14.95;;
21743;SDS011;11034;48.556;9.342;2023-07-02T14:24:06;22.40;;;15.95;;
21743;SDS011;11034;48.556;9.342;2023-07-02T14:26:35;22.33;;;14.60;;
21743;SDS011;11034;48.556;9.342;2023-07-02T14:29:03;25.75;;;15.68;;
21743;SDS011;11034;48.556;9.342;2023-07-02T14:31:31;25.85;;;16.35;;
21743;SDS011;11034;48.556;9.342;2023-07-02T14:34:00;24.65;;;16.10;;
21743;SDS011;11034;48.556;9.342;2023-07-02T14:36:29;22.55;;;15.07;;
21743;SDS011;11034;48.556;9.342;2023-07-02T14:38:57;24.40;;;16.10;;
21743;SDS011;11034;48.556;9.342;2023-07-02T14:41:25;25.67;;;16.13;;
21743;SDS011;11034;48.556;9.342;2023-07-02T14:43:53;24.52;;;16.02;;
21743;SDS011;11034;48.556;9.342;2023-07-02T14:46:21;24.83;;;16.20;;
21743;SDS011;11034;48.556;9.342;2023-07-02T14:48:49;25.17;;;16.48;;